Time,TemperatureF,DewpointF,PressureIn,WindDirection,WindDirectionDegrees,WindSpeedMPH,WindSpeedGustMPH,Humidity,HourlyPrecipIn,Conditions,Clouds,dailyrainin,SoftwareType,DateUTC
2013-11-10 00:03:00,51.0,-99.9,-100.00,SW,229,8.0,10.0,-999,-99.99,,,-99.99,,2013-11-10 05:03:00,
2013-11-10 00:13:00,51.0,-99.9,-100.00,SW,229,8.0,10.0,-999,-99.99,,,-99.99,,2013-11-10 05:13:00,
2013-11-10 00:44:00,50.0,-99.9,-100.00,SW,231,6.0,10.0,-999,0.00,,,-99.99,,2013-11-10 05:44:00,
2013-11-10 00:54:00,50.0,-99.9,-100.00,SW,231,6.0,10.0,-999,0.00,,,-99.99,,2013-11-10 05:54:00,
2013-11-10 01:02:00,50.0,-99.9,-100.00,SW,231,6.0,10.0,-999,0.00,,,-99.99,,2013-11-10 06:02:00,
2013-11-10 01:13:00,50.0,-99.9,-100.00,SW,231,6.0,10.0,-999,0.00,,,-99.99,,2013-11-10 06:13:00,
2013-11-10 01:52:00,51.0,-99.9,-100.00,SW,215,6.0,9.0,-999,-99.99,,,-99.99,,2013-11-10 06:52:00,
2013-11-10 02:02:00,51.0,-99.9,-100.00,SW,215,6.0,9.0,-999,-99.99,,,-99.99,,2013-11-10 07:02:00,
2013-11-10 02:12:00,51.0,-99.9,-100.00,SW,215,6.0,9.0,-999,-99.99,,,-99.99,,2013-11-10 07:12:00,
2013-11-10 02:43:00,53.0,-99.9,-100.00,SW,228,11.0,16.0,-999,0.00,,,-99.99,,2013-11-10 07:43:00,
2013-11-10 02:52:00,53.0,-99.9,-100.00,SW,228,11.0,16.0,-999,0.00,,,-99.99,,2013-11-10 07:52:00,
2013-11-10 03:03:00,53.0,-99.9,-100.00,SW,228,11.0,16.0,-999,0.00,,,-99.99,,2013-11-10 08:03:00,
2013-11-10 03:12:00,53.0,-99.9,-100.00,SW,228,11.0,16.0,-999,0.00,,,-99.99,,2013-11-10 08:12:00,
2013-11-10 03:43:00,54.0,-99.9,-100.00,SW,232,11.0,13.0,-999,0.00,,,-99.99,,2013-11-10 08:43:00,
2013-11-10 03:53:00,54.0,-99.9,-100.00,SW,232,11.0,13.0,-999,0.00,,,-99.99,,2013-11-10 08:53:00,
2013-11-10 04:02:00,54.0,-99.9,-100.00,SW,232,11.0,13.0,-999,0.00,,,-99.99,,2013-11-10 09:02:00,
2013-11-10 04:12:00,54.0,-99.9,-100.00,SW,232,11.0,13.0,-999,0.00,,,-99.99,,2013-11-10 09:12:00,
2013-11-10 04:43:00,53.0,-99.9,-100.00,SW,229,11.0,16.0,-999,0.00,,,0.01,,2013-11-10 09:43:00,
2013-11-10 04:53:00,53.0,-99.9,-100.00,SW,229,11.0,16.0,-999,0.00,,,0.01,,2013-11-10 09:53:00,
2013-11-10 05:03:00,53.0,-99.9,-100.00,SW,229,11.0,16.0,-999,0.00,,,0.01,,2013-11-10 10:03:00,
2013-11-10 05:13:00,53.0,-99.9,-100.00,SW,229,11.0,16.0,-999,0.00,,,0.01,,2013-11-10 10:13:00,
2013-11-10 05:42:00,52.0,-99.9,-100.00,WSW,240,7.0,11.0,-999,-99.99,,,0.00,,2013-11-10 10:42:00,
2013-11-10 05:53:00,52.0,-99.9,-100.00,WSW,240,7.0,11.0,-999,-99.99,,,0.00,,2013-11-10 10:53:00,
2013-11-10 06:03:00,52.0,-99.9,-100.00,WSW,240,7.0,11.0,-999,-99.99,,,0.00,,2013-11-10 11:03:00,
2013-11-10 06:12:00,52.0,-99.9,-100.00,WSW,240,7.0,11.0,-999,-99.99,,,0.00,,2013-11-10 11:12:00,
2013-11-10 06:52:00,51.0,-99.9,-100.00,WSW,244,7.0,10.0,-999,-99.99,,,-99.99,,2013-11-10 11:52:00,
2013-11-10 07:02:00,51.0,-99.9,-100.00,WSW,244,7.0,10.0,-999,-99.99,,,-99.99,,2013-11-10 12:02:00,
2013-11-10 07:12:00,51.0,-99.9,-100.00,WSW,244,7.0,10.0,-999,-99.99,,,-99.99,,2013-11-10 12:12:00,
2013-11-10 07:42:00,49.0,-99.9,-100.00,WSW,244,6.0,8.0,-999,-99.99,,,-99.99,,2013-11-10 12:42:00,
2013-11-10 07:52:00,49.0,-99.9,-100.00,WSW,244,6.0,8.0,-999,-99.99,,,-99.99,,2013-11-10 12:52:00,
2013-11-10 08:01:00,49.0,-99.9,-100.00,WSW,244,6.0,8.0,-999,-99.99,,,-99.99,,2013-11-10 13:01:00,
2013-11-10 08:11:00,49.0,-99.9,-100.00,WSW,244,6.0,8.0,-999,-99.99,,,-99.99,,2013-11-10 13:11:00,
2013-11-10 08:42:00,52.0,-99.9,-100.00,WSW,241,9.0,12.0,-999,0.00,,,-99.99,,2013-11-10 13:42:00,
2013-11-10 08:52:00,52.0,-99.9,-100.00,WSW,241,9.0,12.0,-999,0.00,,,-99.99,,2013-11-10 13:52:00,
2013-11-10 09:02:00,52.0,-99.9,-100.00,WSW,241,9.0,12.0,-999,0.00,,,-99.99,,2013-11-10 14:02:00,
2013-11-10 09:11:00,52.0,-99.9,-100.00,WSW,241,9.0,12.0,-999,0.00,,,-99.99,,2013-11-10 14:11:00,
2013-11-10 09:42:00,55.0,-99.9,-100.00,WSW,246,10.0,13.0,-999,0.00,,,-99.99,,2013-11-10 14:42:00,
2013-11-10 09:52:00,55.0,-99.9,-100.00,WSW,246,10.0,13.0,-999,0.00,,,-99.99,,2013-11-10 14:52:00,
2013-11-10 10:02:00,55.0,-99.9,-100.00,WSW,246,10.0,13.0,-999,0.00,,,-99.99,,2013-11-10 15:02:00,
2013-11-10 10:12:00,55.0,-99.9,-100.00,WSW,246,10.0,13.0,-999,0.00,,,-99.99,,2013-11-10 15:12:00,
2013-11-10 10:44:00,57.0,-99.9,-100.00,SW,223,7.0,13.0,-999,0.00,,,-99.99,,2013-11-10 15:44:00,
2013-11-10 10:54:00,57.0,-99.9,-100.00,SW,223,7.0,13.0,-999,0.00,,,-99.99,,2013-11-10 15:54:00,
2013-11-10 11:03:00,57.0,-99.9,-100.00,SW,223,7.0,13.0,-999,0.00,,,-99.99,,2013-11-10 16:03:00,
2013-11-10 11:12:00,57.0,-99.9,-100.00,SW,223,7.0,13.0,-999,0.00,,,-99.99,,2013-11-10 16:12:00,
2013-11-10 11:43:00,57.0,-99.9,-100.00,SW,217,12.0,13.0,-999,-99.99,,,-99.99,,2013-11-10 16:43:00,
2013-11-10 11:53:00,57.0,-99.9,-100.00,SW,217,12.0,13.0,-999,-99.99,,,-99.99,,2013-11-10 16:53:00,
2013-11-10 12:03:00,57.0,-99.9,-100.00,SW,217,12.0,13.0,-999,-99.99,,,-99.99,,2013-11-10 17:03:00,
2013-11-10 12:12:00,57.0,-99.9,-100.00,SW,217,12.0,13.0,-999,-99.99,,,-99.99,,2013-11-10 17:12:00,
2013-11-10 12:43:00,60.0,-99.9,-100.00,WSW,255,11.0,17.0,-999,-99.99,,,-99.99,,2013-11-10 17:43:00,
2013-11-10 12:52:00,60.0,-99.9,-100.00,WSW,255,11.0,17.0,-999,-99.99,,,-99.99,,2013-11-10 17:52:00,
2013-11-10 13:03:00,60.0,-99.9,-100.00,WSW,255,11.0,17.0,-999,-99.99,,,-99.99,,2013-11-10 18:03:00,
2013-11-10 13:13:00,60.0,-99.9,-100.00,WSW,255,11.0,17.0,-999,-99.99,,,-99.99,,2013-11-10 18:13:00,
2013-11-10 13:42:00,59.0,-99.9,-100.00,West,269,14.0,19.0,-999,0.00,,,-99.99,,2013-11-10 18:42:00,
2013-11-10 13:52:00,59.0,-99.9,-100.00,West,269,14.0,19.0,-999,0.00,,,-99.99,,2013-11-10 18:52:00,
2013-11-10 14:02:00,59.0,-99.9,-100.00,West,269,14.0,19.0,-999,0.00,,,-99.99,,2013-11-10 19:02:00,
2013-11-10 14:11:00,59.0,-99.9,-100.00,West,269,14.0,19.0,-999,0.00,,,-99.99,,2013-11-10 19:11:00,
2013-11-10 14:42:00,60.0,-99.9,-100.00,West,280,20.0,26.0,-999,-99.99,,,-99.99,,2013-11-10 19:42:00,
2013-11-10 14:52:00,60.0,-99.9,-100.00,West,280,20.0,26.0,-999,-99.99,,,-99.99,,2013-11-10 19:52:00,
2013-11-10 15:02:00,60.0,-99.9,-100.00,West,280,20.0,26.0,-999,-99.99,,,-99.99,,2013-11-10 20:02:00,
2013-11-10 15:12:00,60.0,-99.9,-100.00,West,280,20.0,26.0,-999,-99.99,,,-99.99,,2013-11-10 20:12:00,
2013-11-10 15:43:00,51.0,-99.9,-100.00,NW,319,18.0,29.0,-999,-99.99,,,-99.99,,2013-11-10 20:43:00,
2013-11-10 15:53:00,51.0,-99.9,-100.00,NW,319,18.0,29.0,-999,-99.99,,,-99.99,,2013-11-10 20:53:00,
2013-11-10 16:02:00,51.0,-99.9,-100.00,NW,319,18.0,29.0,-999,-99.99,,,-99.99,,2013-11-10 21:02:00,
2013-11-10 16:11:00,51.0,-99.9,-100.00,NW,319,18.0,29.0,-999,-99.99,,,-99.99,,2013-11-10 21:11:00,
2013-11-10 16:43:00,48.0,-99.9,-100.00,WNW,283,6.0,12.0,-999,-99.99,,,-99.99,,2013-11-10 21:43:00,
2013-11-10 16:55:00,48.0,-99.9,-100.00,WNW,283,6.0,12.0,-999,-99.99,,,-99.99,,2013-11-10 21:55:00,
2013-11-10 17:04:00,48.0,-99.9,-100.00,WNW,283,6.0,12.0,-999,-99.99,,,-99.99,,2013-11-10 22:04:00,
2013-11-10 17:13:00,48.0,-99.9,-100.00,WNW,283,6.0,12.0,-999,-99.99,,,-99.99,,2013-11-10 22:13:00,
2013-11-10 17:43:00,48.0,-99.9,-100.00,WNW,288,14.0,22.0,-999,-99.99,,,-99.99,,2013-11-10 22:43:00,
2013-11-10 17:54:00,48.0,-99.9,-100.00,WNW,288,14.0,22.0,-999,-99.99,,,-99.99,,2013-11-10 22:54:00,
2013-11-10 18:03:00,48.0,-99.9,-100.00,WNW,288,14.0,22.0,-999,-99.99,,,-99.99,,2013-11-10 23:03:00,
2013-11-10 18:12:00,48.0,-99.9,-100.00,WNW,288,14.0,22.0,-999,-99.99,,,-99.99,,2013-11-10 23:12:00,
2013-11-10 18:53:00,49.0,-99.9,-100.00,WNW,287,10.0,21.0,-999,-99.99,,,-99.99,,2013-11-10 23:53:00,
2013-11-10 19:03:00,49.0,-99.9,-100.00,WNW,287,10.0,21.0,-999,-99.99,,,-99.99,,2013-11-11 00:03:00,
2013-11-10 19:12:00,49.0,-99.9,-100.00,WNW,287,10.0,21.0,-999,-99.99,,,-99.99,,2013-11-11 00:12:00,
2013-11-10 19:42:00,49.0,-99.9,-100.00,WNW,287,12.0,24.0,-999,-99.99,,,-99.99,,2013-11-11 00:42:00,
2013-11-10 19:52:00,49.0,-99.9,-100.00,WNW,287,12.0,24.0,-999,-99.99,,,-99.99,,2013-11-11 00:52:00,
2013-11-10 20:02:00,49.0,-99.9,-100.00,WNW,287,12.0,24.0,-999,-99.99,,,-99.99,,2013-11-11 01:02:00,
2013-11-10 20:11:00,49.0,-99.9,-100.00,WNW,287,12.0,24.0,-999,-99.99,,,-99.99,,2013-11-11 01:11:00,
2013-11-10 20:52:00,49.0,-99.9,-100.00,WNW,283,12.0,22.0,-999,-99.99,,,-99.99,,2013-11-11 01:52:00,
2013-11-10 21:02:00,49.0,-99.9,-100.00,WNW,283,12.0,22.0,-999,-99.99,,,-99.99,,2013-11-11 02:02:00,
2013-11-10 21:11:00,49.0,-99.9,-100.00,WNW,283,12.0,22.0,-999,-99.99,,,-99.99,,2013-11-11 02:11:00,
2013-11-10 21:42:00,50.0,-99.9,-100.00,West,275,17.0,26.0,-999,0.00,,,-99.99,,2013-11-11 02:42:00,
2013-11-10 21:52:00,50.0,-99.9,-100.00,West,275,17.0,26.0,-999,0.00,,,-99.99,,2013-11-11 02:52:00,
2013-11-10 22:02:00,50.0,-99.9,-100.00,West,275,17.0,26.0,-999,0.00,,,-99.99,,2013-11-11 03:02:00,
2013-11-10 22:12:00,50.0,-99.9,-100.00,West,275,17.0,26.0,-999,0.00,,,-99.99,,2013-11-11 03:12:00,
2013-11-10 22:44:00,49.0,-99.9,-100.00,West,279,19.0,30.0,-999,-99.99,,,-99.99,,2013-11-11 03:44:00,
2013-11-10 22:55:00,49.0,-99.9,-100.00,West,279,19.0,30.0,-999,-99.99,,,-99.99,,2013-11-11 03:55:00,
2013-11-10 23:04:00,49.0,-99.9,-100.00,West,279,19.0,30.0,-999,-99.99,,,-99.99,,2013-11-11 04:04:00,
2013-11-10 23:14:00,49.0,-99.9,-100.00,West,279,19.0,30.0,-999,-99.99,,,-99.99,,2013-11-11 04:14:00,
2013-11-10 23:43:00,49.0,-99.9,-100.00,WNW,284,14.0,24.0,-999,-99.99,,,-99.99,,2013-11-11 04:43:00,
2013-11-10 23:53:00,49.0,-99.9,-100.00,WNW,284,14.0,24.0,-999,-99.99,,,-99.99,,2013-11-11 04:53:00,